sensor_id;sensor_type;location;lat;lon;timestamp;temperature;humidity
21261;DHT22;10788;47.930;9.766;2023-07-08T00:00:16;20.50;99.90
21261;DHT22;10788;47.930;9.766;2023-07-08T00:02:42;20.50;99.90
21261;DHT22;10788;47.930;9.766;2023-07-08T00:05:13;20.40;99.90
21261;DHT22;10788;47.930;9.766;2023-07-08T00:07:40;20.40;99.90
21261;DHT22;10788;47.930;9.766;2023-07-08T00:12:43;20.30;99.90
21261;DHT22;10788;47.930;9.766;2023-07-08T00:15:10;20.20;99.90
21261;DHT22;10788;47.930;9.766;2023-07-08T00:17:36;20.20;99.90
21261;DHT22;10788;47.930;9.766;2023-07-08T00:20:54;20.20;99.90
21261;DHT22;10788;47.930;9.766;2023-07-08T00:22:55;20.20;99.90
21261;DHT22;10788;47.930;9.766;2023-07-08T00:25:21;20.20;99.90
21261;DHT22;10788;47.930;9.766;2023-07-08T00:27:47;20.10;99.90
21261;DHT22;10788;47.930;9.766;2023-07-08T00:30:23;20.10;99.90
21261;DHT22;10788;47.930;9.766;2023-07-08T00:32:49;20.00;99.90
21261;DHT22;10788;47.930;9.766;2023-07-08T00:35:22;19.90;99.90
21261;DHT22;10788;47.930;9.766;2023-07-08T00:37:50;19.90;99.90
21261;DHT22;10788;47.930;9.766;2023-07-08T00:40:20;19.80;99.90
21261;DHT22;10788;47.930;9.766;2023-07-08T00:42:45;19.80;99.90
21261;DHT22;10788;47.930;9.766;2023-07-08T00:48:07;19.70;99.90
21261;DHT22;10788;47.930;9.766;2023-07-08T00:50:34;19.70;99.90
21261;DHT22;10788;47.930;9.766;2023-07-08T00:55:47;19.70;99.90
21261;DHT22;10788;47.930;9.766;2023-07-08T00:58:15;19.70;99.90
21261;DHT22;10788;47.930;9.766;2023-07-08T01:00:42;19.70;99.90
21261;DHT22;10788;47.930;9.766;2023-07-08T01:03:08;19.60;99.90
21261;DHT22;10788;47.930;9.766;2023-07-08T01:05:33;19.50;99.90
21261;DHT22;10788;47.930;9.766;2023-07-08T01:08:02;19.50;99.90
21261;DHT22;10788;47.930;9.766;2023-07-08T01:10:34;19.50;99.90
21261;DHT22;10788;47.930;9.766;2023-07-08T01:13:04;19.40;99.90
21261;DHT22;10788;47.930;9.766;2023-07-08T01:15:39;19.40;99.90
21261;DHT22;10788;47.930;9.766;2023-07-08T01:18:07;19.40;99.90
21261;DHT22;10788;47.930;9.766;2023-07-08T01:20:33;19.40;99.90
21261;DHT22;10788;47.930;9.766;2023-07-08T01:22:59;19.30;99.90
21261;DHT22;10788;47.930;9.766;2023-07-08T01:25:25;19.30;99.90
21261;DHT22;10788;47.930;9.766;2023-07-08T01:27:54;19.30;99.90
21261;DHT22;10788;47.930;9.766;2023-07-08T01:30:20;19.30;99.90
21261;DHT22;10788;47.930;9.766;2023-07-08T01:32:51;19.30;99.90
21261;DHT22;10788;47.930;9.766;2023-07-08T01:35:20;19.30;99.90
21261;DHT22;10788;47.930;9.766;2023-07-08T01:37:53;19.30;99.90
21261;DHT22;10788;47.930;9.766;2023-07-08T01:40:29;19.30;99.90
21261;DHT22;10788;47.930;9.766;2023-07-08T01:42:56;19.20;99.90
21261;DHT22;10788;47.930;9.766;2023-07-08T01:45:23;19.20;99.90
21261;DHT22;10788;47.930;9.766;2023-07-08T01:47:59;19.10;99.90
21261;DHT22;10788;47.930;9.766;2023-07-08T01:50:26;19.00;99.90
21261;DHT22;10788;47.930;9.766;2023-07-08T01:52:53;19.10;99.90
21261;DHT22;10788;47.930;9.766;2023-07-08T01:55:26;19.10;99.90
21261;DHT22;10788;47.930;9.766;2023-07-08T01:57:54;19.10;99.90
21261;DHT22;10788;47.930;9.766;2023-07-08T02:00:21;19.10;99.90
21261;DHT22;10788;47.930;9.766;2023-07-08T02:02:47;19.20;99.90
21261;DHT22;10788;47.930;9.766;2023-07-08T02:05:13;19.20;99.90
21261;DHT22;10788;47.930;9.766;2023-07-08T02:07:39;19.10;99.90
21261;DHT22;10788;47.930;9.766;2023-07-08T02:10:05;18.90;99.90
21261;DHT22;10788;47.930;9.766;2023-07-08T02:12:31;18.90;99.90
21261;DHT22;10788;47.930;9.766;2023-07-08T02:14:57;18.90;99.90
21261;DHT22;10788;47.930;9.766;2023-07-08T02:17:22;18.80;99.90
21261;DHT22;10788;47.930;9.766;2023-07-08T02:19:48;18.80;99.90
21261;DHT22;10788;47.930;9.766;2023-07-08T02:22:14;18.70;99.90
21261;DHT22;10788;47.930;9.766;2023-07-08T02:24:39;18.70;99.90
21261;DHT22;10788;47.930;9.766;2023-07-08T02:27:05;18.70;99.90
21261;DHT22;10788;47.930;9.766;2023-07-08T02:29:30;18.80;99.90
21261;DHT22;10788;47.930;9.766;2023-07-08T02:31:57;18.70;99.90
21261;DHT22;10788;47.930;9.766;2023-07-08T02:34:23;18.70;99.90
21261;DHT22;10788;47.930;9.766;2023-07-08T02:36:48;18.70;99.90
21261;DHT22;10788;47.930;9.766;2023-07-08T02:39:14;18.70;99.90
21261;DHT22;10788;47.930;9.766;2023-07-08T02:41:39;18.70;99.90
21261;DHT22;10788;47.930;9.766;2023-07-08T02:44:05;18.70;99.90
21261;DHT22;10788;47.930;9.766;2023-07-08T02:46:31;18.70;99.90
21261;DHT22;10788;47.930;9.766;2023-07-08T02:48:56;18.70;99.90
21261;DHT22;10788;47.930;9.766;2023-07-08T02:51:22;18.70;99.90
21261;DHT22;10788;47.930;9.766;2023-07-08T02:53:49;18.70;99.90
21261;DHT22;10788;47.930;9.766;2023-07-08T02:56:15;18.60;99.90
21261;DHT22;10788;47.930;9.766;2023-07-08T02:58:41;18.60;99.90
21261;DHT22;10788;47.930;9.766;2023-07-08T03:01:07;18.60;99.90
21261;DHT22;10788;47.930;9.766;2023-07-08T03:03:33;18.60;99.90
21261;DHT22;10788;47.930;9.766;2023-07-08T03:06:02;18.50;99.90
21261;DHT22;10788;47.930;9.766;2023-07-08T03:08:29;18.50;99.90
21261;DHT22;10788;47.930;9.766;2023-07-08T03:11:05;18.50;99.90
21261;DHT22;10788;47.930;9.766;2023-07-08T03:13:31;18.50;99.90
21261;DHT22;10788;47.930;9.766;2023-07-08T03:15:58;18.50;99.90
21261;DHT22;10788;47.930;9.766;2023-07-08T03:18:24;18.50;99.90
21261;DHT22;10788;47.930;9.766;2023-07-08T03:20:52;18.50;99.90
21261;DHT22;10788;47.930;9.766;2023-07-08T03:23:18;18.60;99.90
21261;DHT22;10788;47.930;9.766;2023-07-08T03:25:44;18.60;99.90
21261;DHT22;10788;47.930;9.766;2023-07-08T03:28:10;18.50;99.90
21261;DHT22;10788;47.930;9.766;2023-07-08T03:30:44;18.40;99.90
21261;DHT22;10788;47.930;9.766;2023-07-08T03:33:10;18.30;99.90
21261;DHT22;10788;47.930;9.766;2023-07-08T03:35:36;18.20;99.90
21261;DHT22;10788;47.930;9.766;2023-07-08T03:38:03;18.30;99.90
21261;DHT22;10788;47.930;9.766;2023-07-08T03:40:29;18.30;99.90
21261;DHT22;10788;47.930;9.766;2023-07-08T03:42:54;18.10;99.90
21261;DHT22;10788;47.930;9.766;2023-07-08T03:45:20;18.30;99.90
21261;DHT22;10788;47.930;9.766;2023-07-08T03:47:45;18.30;99.90
21261;DHT22;10788;47.930;9.766;2023-07-08T03:50:23;18.30;99.90
21261;DHT22;10788;47.930;9.766;2023-07-08T03:52:51;18.40;99.90
21261;DHT22;10788;47.930;9.766;2023-07-08T03:55:17;18.50;99.90
21261;DHT22;10788;47.930;9.766;2023-07-08T03:57:43;18.60;99.90
21261;DHT22;10788;47.930;9.766;2023-07-08T04:00:09;18.60;99.90
21261;DHT22;10788;47.930;9.766;2023-07-08T04:02:45;18.70;99.90
21261;DHT22;10788;47.930;9.766;2023-07-08T04:05:20;18.80;99.90
21261;DHT22;10788;47.930;9.766;2023-07-08T04:07:46;18.80;99.90
21261;DHT22;10788;47.930;9.766;2023-07-08T04:10:12;18.80;99.90
21261;DHT22;10788;47.930;9.766;2023-07-08T04:12:39;18.80;99.90
21261;DHT22;10788;47.930;9.766;2023-07-08T04:15:07;18.70;99.90
21261;DHT22;10788;47.930;9.766;2023-07-08T04:17:35;18.70;99.90
21261;DHT22;10788;47.930;9.766;2023-07-08T04:20:02;18.70;99.90
21261;DHT22;10788;47.930;9.766;2023-07-08T04:22:29;18.70;99.90
21261;DHT22;10788;47.930;9.766;2023-07-08T04:24:55;18.80;99.90
21261;DHT22;10788;47.930;9.766;2023-07-08T04:27:21;18.80;99.90
21261;DHT22;10788;47.930;9.766;2023-07-08T04:29:46;18.80;99.90
21261;DHT22;10788;47.930;9.766;2023-07-08T04:32:12;18.90;99.90
21261;DHT22;10788;47.930;9.766;2023-07-08T04:34:37;19.00;99.90
21261;DHT22;10788;47.930;9.766;2023-07-08T04:37:03;18.90;99.90
21261;DHT22;10788;47.930;9.766;2023-07-08T04:39:30;19.00;99.90
21261;DHT22;10788;47.930;9.766;2023-07-08T04:41:56;19.00;99.90
21261;DHT22;10788;47.930;9.766;2023-07-08T04:44:22;19.00;99.90
21261;DHT22;10788;47.930;9.766;2023-07-08T04:46:52;19.00;99.90
21261;DHT22;10788;47.930;9.766;2023-07-08T04:49:20;19.00;99.90
21261;DHT22;10788;47.930;9.766;2023-07-08T04:51:46;19.00;99.90
21261;DHT22;10788;47.930;9.766;2023-07-08T04:54:12;19.00;99.90
21261;DHT22;10788;47.930;9.766;2023-07-08T04:56:42;19.00;99.90
21261;DHT22;10788;47.930;9.766;2023-07-08T04:59:13;19.10;99.90
21261;DHT22;10788;47.930;9.766;2023-07-08T05:01:39;19.10;99.90
21261;DHT22;10788;47.930;9.766;2023-07-08T05:04:06;19.00;99.90
21261;DHT22;10788;47.930;9.766;2023-07-08T05:06:33;19.10;99.90
21261;DHT22;10788;47.930;9.766;2023-07-08T05:09:00;19.00;99.90
21261;DHT22;10788;47.930;9.766;2023-07-08T05:11:26;19.00;99.90
21261;DHT22;10788;47.930;9.766;2023-07-08T05:13:51;19.00;99.90
21261;DHT22;10788;47.930;9.766;2023-07-08T05:16:17;19.10;99.90
21261;DHT22;10788;47.930;9.766;2023-07-08T05:18:43;19.00;99.90
21261;DHT22;10788;47.930;9.766;2023-07-08T05:21:09;19.00;99.90
21261;DHT22;10788;47.930;9.766;2023-07-08T05:23:35;19.00;99.90
21261;DHT22;10788;47.930;9.766;2023-07-08T05:26:02;19.00;99.90
21261;DHT22;10788;47.930;9.766;2023-07-08T05:28:28;18.90;99.90
21261;DHT22;10788;47.930;9.766;2023-07-08T05:30:55;18.80;99.90
21261;DHT22;10788;47.930;9.766;2023-07-08T05:33:21;18.80;99.90
21261;DHT22;10788;47.930;9.766;2023-07-08T05:35:47;18.80;99.90
21261;DHT22;10788;47.930;9.766;2023-07-08T05:38:13;18.70;99.90
21261;DHT22;10788;47.930;9.766;2023-07-08T05:40:38;18.70;99.90
21261;DHT22;10788;47.930;9.766;2023-07-08T05:43:04;18.60;99.90
21261;DHT22;10788;47.930;9.766;2023-07-08T05:45:29;18.50;99.90
21261;DHT22;10788;47.930;9.766;2023-07-08T05:47:55;18.40;99.90
21261;DHT22;10788;47.930;9.766;2023-07-08T05:50:21;18.40;99.90
21261;DHT22;10788;47.930;9.766;2023-07-08T05:52:47;18.40;99.90
21261;DHT22;10788;47.930;9.766;2023-07-08T05:55:12;18.40;99.90
21261;DHT22;10788;47.930;9.766;2023-07-08T05:57:38;18.50;99.90
21261;DHT22;10788;47.930;9.766;2023-07-08T06:00:04;18.50;99.90
21261;DHT22;10788;47.930;9.766;2023-07-08T06:02:30;18.50;99.90
21261;DHT22;10788;47.930;9.766;2023-07-08T06:04:56;18.60;99.90
21261;DHT22;10788;47.930;9.766;2023-07-08T06:07:21;18.60;99.90
21261;DHT22;10788;47.930;9.766;2023-07-08T06:09:47;18.60;99.90
21261;DHT22;10788;47.930;9.766;2023-07-08T06:12:13;18.70;99.90
21261;DHT22;10788;47.930;9.766;2023-07-08T06:14:39;18.70;99.90
21261;DHT22;10788;47.930;9.766;2023-07-08T06:17:04;18.70;99.90
21261;DHT22;10788;47.930;9.766;2023-07-08T06:19:30;18.80;99.90
21261;DHT22;10788;47.930;9.766;2023-07-08T06:21:56;18.80;99.90
21261;DHT22;10788;47.930;9.766;2023-07-08T06:24:21;18.90;99.90
21261;DHT22;10788;47.930;9.766;2023-07-08T06:26:47;18.90;99.90
21261;DHT22;10788;47.930;9.766;2023-07-08T06:29:13;19.00;99.90
21261;DHT22;10788;47.930;9.766;2023-07-08T06:31:38;19.00;99.90
21261;DHT22;10788;47.930;9.766;2023-07-08T06:34:04;19.10;99.90
21261;DHT22;10788;47.930;9.766;2023-07-08T06:36:30;19.10;99.90
21261;DHT22;10788;47.930;9.766;2023-07-08T06:38:56;19.20;99.90
21261;DHT22;10788;47.930;9.766;2023-07-08T06:41:21;19.20;99.90
21261;DHT22;10788;47.930;9.766;2023-07-08T06:43:47;19.20;99.90
21261;DHT22;10788;47.930;9.766;2023-07-08T06:46:13;19.30;99.90
21261;DHT22;10788;47.930;9.766;2023-07-08T06:48:39;19.30;99.90
21261;DHT22;10788;47.930;9.766;2023-07-08T06:51:04;19.30;99.90
21261;DHT22;10788;47.930;9.766;2023-07-08T06:53:30;19.30;99.90
21261;DHT22;10788;47.930;9.766;2023-07-08T06:55:55;19.40;99.90
21261;DHT22;10788;47.930;9.766;2023-07-08T06:58:21;19.50;99.90
21261;DHT22;10788;47.930;9.766;2023-07-08T07:00:47;19.50;99.90
21261;DHT22;10788;47.930;9.766;2023-07-08T07:03:12;19.60;99.90
21261;DHT22;10788;47.930;9.766;2023-07-08T07:05:38;19.70;99.90
21261;DHT22;10788;47.930;9.766;2023-07-08T07:08:04;19.80;99.90
21261;DHT22;10788;47.930;9.766;2023-07-08T07:10:32;19.80;99.90
21261;DHT22;10788;47.930;9.766;2023-07-08T07:12:58;19.90;99.90
21261;DHT22;10788;47.930;9.766;2023-07-08T07:15:24;20.00;99.90
21261;DHT22;10788;47.930;9.766;2023-07-08T07:17:50;20.10;99.90
21261;DHT22;10788;47.930;9.766;2023-07-08T07:20:16;20.20;99.90
21261;DHT22;10788;47.930;9.766;2023-07-08T07:22:42;20.20;99.90
21261;DHT22;10788;47.930;9.766;2023-07-08T07:25:08;20.30;99.90
21261;DHT22;10788;47.930;9.766;2023-07-08T07:27:33;20.30;99.90
21261;DHT22;10788;47.930;9.766;2023-07-08T07:29:59;20.40;99.90
21261;DHT22;10788;47.930;9.766;2023-07-08T07:32:25;20.40;99.90
21261;DHT22;10788;47.930;9.766;2023-07-08T07:34:52;20.50;99.90
21261;DHT22;10788;47.930;9.766;2023-07-08T07:37:19;20.60;99.90
21261;DHT22;10788;47.930;9.766;2023-07-08T07:39:45;20.60;99.90
21261;DHT22;10788;47.930;9.766;2023-07-08T07:42:12;20.70;99.90
21261;DHT22;10788;47.930;9.766;2023-07-08T07:44:38;20.80;99.90
21261;DHT22;10788;47.930;9.766;2023-07-08T07:47:05;20.80;99.90
21261;DHT22;10788;47.930;9.766;2023-07-08T07:49:31;20.80;99.90
21261;DHT22;10788;47.930;9.766;2023-07-08T07:51:56;20.80;99.90
21261;DHT22;10788;47.930;9.766;2023-07-08T07:54:22;20.90;99.90
21261;DHT22;10788;47.930;9.766;2023-07-08T07:56:48;20.90;99.90
21261;DHT22;10788;47.930;9.766;2023-07-08T07:59:13;21.00;99.90
21261;DHT22;10788;47.930;9.766;2023-07-08T08:01:39;21.10;99.90
21261;DHT22;10788;47.930;9.766;2023-07-08T08:04:07;21.20;99.90
21261;DHT22;10788;47.930;9.766;2023-07-08T08:06:33;21.40;99.90
21261;DHT22;10788;47.930;9.766;2023-07-08T08:08:59;21.60;99.90
21261;DHT22;10788;47.930;9.766;2023-07-08T08:11:25;21.80;99.90
21261;DHT22;10788;47.930;9.766;2023-07-08T08:13:52;22.00;99.90
21261;DHT22;10788;47.930;9.766;2023-07-08T08:16:17;22.10;99.90
21261;DHT22;10788;47.930;9.766;2023-07-08T08:18:43;22.20;99.90
21261;DHT22;10788;47.930;9.766;2023-07-08T08:21:08;22.30;99.90
21261;DHT22;10788;47.930;9.766;2023-07-08T08:23:34;22.40;99.90
21261;DHT22;10788;47.930;9.766;2023-07-08T08:26:00;22.40;99.90
21261;DHT22;10788;47.930;9.766;2023-07-08T08:28:25;22.50;99.90
21261;DHT22;10788;47.930;9.766;2023-07-08T08:30:51;22.50;99.90
21261;DHT22;10788;47.930;9.766;2023-07-08T08:33:17;22.50;99.90
21261;DHT22;10788;47.930;9.766;2023-07-08T08:35:44;22.50;99.90
21261;DHT22;10788;47.930;9.766;2023-07-08T08:38:09;22.70;99.90
21261;DHT22;10788;47.930;9.766;2023-07-08T08:40:35;22.90;99.90
21261;DHT22;10788;47.930;9.766;2023-07-08T08:43:12;23.30;99.90
21261;DHT22;10788;47.930;9.766;2023-07-08T08:46:00;23.70;99.90
21261;DHT22;10788;47.930;9.766;2023-07-08T08:48:27;23.90;99.90
21261;DHT22;10788;47.930;9.766;2023-07-08T08:51:05;23.80;99.90
21261;DHT22;10788;47.930;9.766;2023-07-08T08:53:32;23.70;99.90
21261;DHT22;10788;47.930;9.766;2023-07-08T08:56:17;23.50;99.90
21261;DHT22;10788;47.930;9.766;2023-07-08T08:58:46;23.40;99.90
21261;DHT22;10788;47.930;9.766;2023-07-08T09:01:15;23.40;99.90
21261;DHT22;10788;47.930;9.766;2023-07-08T09:03:49;23.60;99.90
21261;DHT22;10788;47.930;9.766;2023-07-08T09:06:30;23.70;99.90
21261;DHT22;10788;47.930;9.766;2023-07-08T09:09:00;23.60;99.90
21261;DHT22;10788;47.930;9.766;2023-07-08T09:14:02;23.30;99.90
21261;DHT22;10788;47.930;9.766;2023-07-08T09:21:51;23.10;99.90
21261;DHT22;10788;47.930;9.766;2023-07-08T09:24:53;23.20;99.90
21261;DHT22;10788;47.930;9.766;2023-07-08T09:27:21;23.30;99.90
21261;DHT22;10788;47.930;9.766;2023-07-08T09:29:47;23.60;99.90
21261;DHT22;10788;47.930;9.766;2023-07-08T09:32:20;23.70;99.90
21261;DHT22;10788;47.930;9.766;2023-07-08T09:34:53;23.80;99.90
21261;DHT22;10788;47.930;9.766;2023-07-08T09:37:30;23.80;99.90
21261;DHT22;10788;47.930;9.766;2023-07-08T09:39:57;23.70;99.90
21261;DHT22;10788;47.930;9.766;2023-07-08T09:42:33;23.70;99.90
21261;DHT22;10788;47.930;9.766;2023-07-08T09:45:12;23.70;99.90
21261;DHT22;10788;47.930;9.766;2023-07-08T09:47:38;23.80;99.90
21261;DHT22;10788;47.930;9.766;2023-07-08T09:50:26;24.00;99.90
21261;DHT22;10788;47.930;9.766;2023-07-08T09:52:57;24.10;99.90
21261;DHT22;10788;47.930;9.766;2023-07-08T09:55:23;24.10;99.90
21261;DHT22;10788;47.930;9.766;2023-07-08T09:57:51;24.00;99.90
21261;DHT22;10788;47.930;9.766;2023-07-08T10:00:29;24.00;99.90
21261;DHT22;10788;47.930;9.766;2023-07-08T10:03:04;24.10;99.90
21261;DHT22;10788;47.930;9.766;2023-07-08T10:05:41;24.10;99.90
21261;DHT22;10788;47.930;9.766;2023-07-08T10:08:20;24.20;99.90
21261;DHT22;10788;47.930;9.766;2023-07-08T10:10:54;24.30;99.90
21261;DHT22;10788;47.930;9.766;2023-07-08T10:15:56;24.30;99.90
21261;DHT22;10788;47.930;9.766;2023-07-08T10:18:28;24.20;99.90
21261;DHT22;10788;47.930;9.766;2023-07-08T10:21:04;24.30;99.90
21261;DHT22;10788;47.930;9.766;2023-07-08T10:26:28;24.40;99.90
21261;DHT22;10788;47.930;9.766;2023-07-08T10:35:08;24.80;99.90
21261;DHT22;10788;47.930;9.766;2023-07-08T10:38:31;25.10;99.90
21261;DHT22;10788;47.930;9.766;2023-07-08T10:44:53;25.20;99.90
21261;DHT22;10788;47.930;9.766;2023-07-08T10:53:42;25.60;99.90
21261;DHT22;10788;47.930;9.766;2023-07-08T11:06:18;25.90;99.90
21261;DHT22;10788;47.930;9.766;2023-07-08T11:08:50;26.00;99.90
21261;DHT22;10788;47.930;9.766;2023-07-08T11:11:24;26.10;99.90
21261;DHT22;10788;47.930;9.766;2023-07-08T11:17:12;26.00;99.90
21261;DHT22;10788;47.930;9.766;2023-07-08T11:22:48;26.20;99.90
21261;DHT22;10788;47.930;9.766;2023-07-08T11:25:20;26.20;99.90
21261;DHT22;10788;47.930;9.766;2023-07-08T11:27:49;26.10;99.90
21261;DHT22;10788;47.930;9.766;2023-07-08T11:30:21;26.20;99.90
21261;DHT22;10788;47.930;9.766;2023-07-08T11:32:50;26.30;99.90
21261;DHT22;10788;47.930;9.766;2023-07-08T11:38:03;26.70;99.90
21261;DHT22;10788;47.930;9.766;2023-07-08T11:40:30;27.10;99.90
21261;DHT22;10788;47.930;9.766;2023-07-08T11:43:04;27.40;99.90
21261;DHT22;10788;47.930;9.766;2023-07-08T11:45:37;27.50;99.90
21261;DHT22;10788;47.930;9.766;2023-07-08T11:48:16;27.50;99.90
21261;DHT22;10788;47.930;9.766;2023-07-08T11:50:45;27.30;99.90
21261;DHT22;10788;47.930;9.766;2023-07-08T12:03:51;27.10;99.90
21261;DHT22;10788;47.930;9.766;2023-07-08T12:08:58;27.00;99.90
21261;DHT22;10788;47.930;9.766;2023-07-08T12:11:27;27.20;99.90
21261;DHT22;10788;47.930;9.766;2023-07-08T12:13:55;27.30;99.90
21261;DHT22;10788;47.930;9.766;2023-07-08T12:16:24;27.40;99.90
21261;DHT22;10788;47.930;9.766;2023-07-08T12:18:51;27.50;99.90
21261;DHT22;10788;47.930;9.766;2023-07-08T12:21:18;27.40;99.90
21261;DHT22;10788;47.930;9.766;2023-07-08T12:23:45;27.40;99.90
21261;DHT22;10788;47.930;9.766;2023-07-08T12:26:12;27.50;99.90
21261;DHT22;10788;47.930;9.766;2023-07-08T12:28:39;27.30;99.90
21261;DHT22;10788;47.930;9.766;2023-07-08T12:31:22;27.30;99.90
21261;DHT22;10788;47.930;9.766;2023-07-08T12:33:50;27.40;99.90
21261;DHT22;10788;47.930;9.766;2023-07-08T12:36:25;27.40;99.90
21261;DHT22;10788;47.930;9.766;2023-07-08T12:38:54;27.40;99.90
21261;DHT22;10788;47.930;9.766;2023-07-08T12:41:23;27.40;99.90
21261;DHT22;10788;47.930;9.766;2023-07-08T12:43:50;27.40;99.90
21261;DHT22;10788;47.930;9.766;2023-07-08T12:46:18;27.40;99.90
21261;DHT22;10788;47.930;9.766;2023-07-08T12:48:44;27.40;99.90
21261;DHT22;10788;47.930;9.766;2023-07-08T12:51:16;27.40;99.90
21261;DHT22;10788;47.930;9.766;2023-07-08T12:53:42;27.40;99.90
21261;DHT22;10788;47.930;9.766;2023-07-08T12:56:08;27.40;99.90
21261;DHT22;10788;47.930;9.766;2023-07-08T12:58:38;27.40;99.90
21261;DHT22;10788;47.930;9.766;2023-07-08T13:01:05;27.30;99.90
21261;DHT22;10788;47.930;9.766;2023-07-08T13:03:35;27.40;99.90
21261;DHT22;10788;47.930;9.766;2023-07-08T13:06:02;27.40;99.90
21261;DHT22;10788;47.930;9.766;2023-07-08T13:08:33;27.50;99.90
21261;DHT22;10788;47.930;9.766;2023-07-08T13:11:01;27.50;99.90
21261;DHT22;10788;47.930;9.766;2023-07-08T13:13:37;27.60;99.90
21261;DHT22;10788;47.930;9.766;2023-07-08T13:16:04;27.60;99.90
21261;DHT22;10788;47.930;9.766;2023-07-08T13:18:40;27.70;99.90
21261;DHT22;10788;47.930;9.766;2023-07-08T13:21:10;27.60;99.90
21261;DHT22;10788;47.930;9.766;2023-07-08T13:23:37;27.60;99.90
21261;DHT22;10788;47.930;9.766;2023-07-08T13:26:15;27.60;99.90
21261;DHT22;10788;47.930;9.766;2023-07-08T13:28:42;27.50;99.90
21261;DHT22;10788;47.930;9.766;2023-07-08T13:31:19;27.60;99.90
21261;DHT22;10788;47.930;9.766;2023-07-08T13:33:50;27.60;99.90
21261;DHT22;10788;47.930;9.766;2023-07-08T13:36:19;27.60;99.90
21261;DHT22;10788;47.930;9.766;2023-07-08T13:38:45;27.70;99.90
21261;DHT22;10788;47.930;9.766;2023-07-08T13:41:19;27.70;99.90
21261;DHT22;10788;47.930;9.766;2023-07-08T13:43:45;27.60;99.90
21261;DHT22;10788;47.930;9.766;2023-07-08T13:46:35;27.60;99.90
21261;DHT22;10788;47.930;9.766;2023-07-08T13:49:09;27.50;99.90
21261;DHT22;10788;47.930;9.766;2023-07-08T13:51:36;27.50;99.90
21261;DHT22;10788;47.930;9.766;2023-07-08T13:54:57;27.60;99.90
21261;DHT22;10788;47.930;9.766;2023-07-08T13:56:55;27.70;99.90
21261;DHT22;10788;47.930;9.766;2023-07-08T13:59:25;27.70;99.90
21261;DHT22;10788;47.930;9.766;2023-07-08T14:01:54;27.70;99.90
21261;DHT22;10788;47.930;9.766;2023-07-08T14:04:34;27.70;99.90
21261;DHT22;10788;47.930;9.766;2023-07-08T14:07:01;27.80;99.90
21261;DHT22;10788;47.930;9.766;2023-07-08T14:09:26;27.90;99.90
21261;DHT22;10788;47.930;9.766;2023-07-08T14:11:52;27.90;99.90
21261;DHT22;10788;47.930;9.766;2023-07-08T14:14:19;27.90;99.90
21261;DHT22;10788;47.930;9.766;2023-07-08T14:16:54;27.90;99.90
21261;DHT22;10788;47.930;9.766;2023-07-08T14:19:23;27.80;99.90
21261;DHT22;10788;47.930;9.766;2023-07-08T14:22:19;27.80;99.90
21261;DHT22;10788;47.930;9.766;2023-07-08T14:24:45;27.80;99.90
21261;DHT22;10788;47.930;9.766;2023-07-08T14:27:11;27.80;99.90
21261;DHT22;10788;47.930;9.766;2023-07-08T14:29:39;27.70;99.90
21261;DHT22;10788;47.930;9.766;2023-07-08T14:32:15;27.80;99.90
21261;DHT22;10788;47.930;9.766;2023-07-08T14:34:42;27.90;99.90
21261;DHT22;10788;47.930;9.766;2023-07-08T14:37:16;28.00;99.90
21261;DHT22;10788;47.930;9.766;2023-07-08T14:39:43;28.20;99.90
21261;DHT22;10788;47.930;9.766;2023-07-08T14:42:11;28.20;99.60
21261;DHT22;10788;47.930;9.766;2023-07-08T14:44:39;28.10;99.40
21261;DHT22;10788;47.930;9.766;2023-07-08T14:47:10;28.20;99.40
21261;DHT22;10788;47.930;9.766;2023-07-08T14:49:36;28.30;97.70
21261;DHT22;10788;47.930;9.766;2023-07-08T14:52:02;28.40;97.60
21261;DHT22;10788;47.930;9.766;2023-07-08T14:54:28;28.50;97.40
21261;DHT22;10788;47.930;9.766;2023-07-08T14:56:56;28.70;95.80
21261;DHT22;10788;47.930;9.766;2023-07-08T14:59:24;28.80;95.20
21261;DHT22;10788;47.930;9.766;2023-07-08T15:01:51;28.90;95.70
21261;DHT22;10788;47.930;9.766;2023-07-08T15:04:18;28.50;95.70
21261;DHT22;10788;47.930;9.766;2023-07-08T15:06:45;28.60;96.40
21261;DHT22;10788;47.930;9.766;2023-07-08T15:09:11;28.50;96.80
21261;DHT22;10788;47.930;9.766;2023-07-08T15:11:38;28.50;97.80
21261;DHT22;10788;47.930;9.766;2023-07-08T15:14:05;28.50;96.90
21261;DHT22;10788;47.930;9.766;2023-07-08T15:16:34;28.50;96.20
21261;DHT22;10788;47.930;9.766;2023-07-08T15:19:00;28.40;95.90
21261;DHT22;10788;47.930;9.766;2023-07-08T15:21:26;28.50;96.00
21261;DHT22;10788;47.930;9.766;2023-07-08T15:23:51;28.60;94.20
21261;DHT22;10788;47.930;9.766;2023-07-08T15:26:17;28.60;94.00
21261;DHT22;10788;47.930;9.766;2023-07-08T15:28:46;28.70;93.80
21261;DHT22;10788;47.930;9.766;2023-07-08T15:31:25;28.70;92.70
21261;DHT22;10788;47.930;9.766;2023-07-08T15:33:53;28.70;92.70
21261;DHT22;10788;47.930;9.766;2023-07-08T15:36:19;28.70;93.50
21261;DHT22;10788;47.930;9.766;2023-07-08T15:38:45;28.90;93.10
21261;DHT22;10788;47.930;9.766;2023-07-08T15:41:21;29.00;92.90
21261;DHT22;10788;47.930;9.766;2023-07-08T15:43:48;29.00;92.70
21261;DHT22;10788;47.930;9.766;2023-07-08T15:46:14;29.10;92.90
21261;DHT22;10788;47.930;9.766;2023-07-08T15:48:40;29.10;92.80
21261;DHT22;10788;47.930;9.766;2023-07-08T15:51:08;29.10;92.60
21261;DHT22;10788;47.930;9.766;2023-07-08T15:53:34;29.00;92.70
21261;DHT22;10788;47.930;9.766;2023-07-08T15:55:59;29.10;92.90
21261;DHT22;10788;47.930;9.766;2023-07-08T15:58:28;28.90;92.50
21261;DHT22;10788;47.930;9.766;2023-07-08T16:00:57;28.90;92.80
21261;DHT22;10788;47.930;9.766;2023-07-08T16:03:32;28.90;92.70
21261;DHT22;10788;47.930;9.766;2023-07-08T16:05:59;28.80;92.70
21261;DHT22;10788;47.930;9.766;2023-07-08T16:08:25;28.80;93.20
21261;DHT22;10788;47.930;9.766;2023-07-08T16:10:58;28.80;93.30
21261;DHT22;10788;47.930;9.766;2023-07-08T16:13:36;29.00;92.60
21261;DHT22;10788;47.930;9.766;2023-07-08T16:16:03;28.90;91.30
21261;DHT22;10788;47.930;9.766;2023-07-08T16:18:29;29.00;92.00
21261;DHT22;10788;47.930;9.766;2023-07-08T16:20:55;28.90;92.20
21261;DHT22;10788;47.930;9.766;2023-07-08T16:23:21;28.90;91.80
21261;DHT22;10788;47.930;9.766;2023-07-08T16:25:49;28.90;92.30
21261;DHT22;10788;47.930;9.766;2023-07-08T16:28:29;28.90;92.00
21261;DHT22;10788;47.930;9.766;2023-07-08T16:30:55;29.00;92.50
21261;DHT22;10788;47.930;9.766;2023-07-08T16:33:21;29.00;91.90
21261;DHT22;10788;47.930;9.766;2023-07-08T16:35:47;28.90;91.70
21261;DHT22;10788;47.930;9.766;2023-07-08T16:38:12;28.90;92.00
21261;DHT22;10788;47.930;9.766;2023-07-08T16:40:39;28.90;92.10
21261;DHT22;10788;47.930;9.766;2023-07-08T16:43:20;28.90;92.00
21261;DHT22;10788;47.930;9.766;2023-07-08T16:45:45;28.90;93.00
21261;DHT22;10788;47.930;9.766;2023-07-08T16:48:11;28.70;92.10